Time;durP1;ratioP1;P1;durP2;ratioP2;P2;SDS_P1;SDS_P2;PMS_P1;PMS_P2;Temp;Humidity;BMP_temperature;BMP_pressure;BME280_temperature;BME280_humidity;BME280_pressure;Samples;Min_cycle;Max_cycle;Signal;HPM_P1;HPM_P2
2023/09/03 00:00:02;;;;;;;3.00;2.70;;;;;;;18.07;100.00;100127.00;109472;1251;70129;-73
2023/09/03 00:02:37;;;;;;;4.00;2.60;;;;;;;18.05;100.00;100123.19;109316;1252;72725;-73
2023/09/03 00:05:04;;;;;;;2.90;2.70;;;;;;;18.04;100.00;100118.97;109468;1251;60075;-73
2023/09/03 00:07:32;;;;;;;18.10;3.70;;;;;;;18.06;100.00;100116.41;109438;1252;59193;-74
2023/09/03 00:09:59;;;;;;;3.10;2.70;;;;;;;18.07;100.00;100112.26;109443;1251;72656;-73
2023/09/03 00:12:27;;;;;;;3.30;3.00;;;;;;;18.08;100.00;100108.99;109506;1251;69709;-73
2023/09/03 00:14:55;;;;;;;3.30;3.00;;;;;;;18.08;100.00;100105.06;109451;1251;72458;-73
2023/09/03 00:17:22;;;;;;;5.50;2.90;;;;;;;18.08;100.00;100099.90;109475;1252;61702;-75
2023/09/03 00:19:50;;;;;;;5.20;3.10;;;;;;;18.09;100.00;100097.03;109465;1251;58884;-73
2023/09/03 00:22:17;;;;;;;6.30;3.10;;;;;;;18.09;100.00;100091.34;109407;1251;72623;-73
2023/09/03 00:24:45;;;;;;;5.70;3.20;;;;;;;18.09;100.00;100089.91;109414;1251;69488;-73
2023/09/03 00:27:12;;;;;;;5.60;3.50;;;;;;;18.11;100.00;100086.48;109442;1251;71355;-73
2023/09/03 00:29:40;;;;;;;4.10;3.30;;;;;;;18.12;100.00;100082.69;109438;1252;58797;-73
2023/09/03 00:32:08;;;;;;;5.70;3.50;;;;;;;18.12;100.00;100080.73;109493;1251;58788;-73
2023/09/03 00:34:35;;;;;;;5.20;3.60;;;;;;;18.12;100.00;100078.02;109454;1252;73142;-73
2023/09/03 00:37:03;;;;;;;3.80;3.50;;;;;;;18.12;100.00;100075.74;109472;1251;71049;-73
2023/09/03 00:39:32;;;;;;;4.40;3.40;;;;;;;18.12;100.00;100074.15;109443;1251;72443;-74
2023/09/03 00:42:00;;;;;;;3.80;3.00;;;;;;;18.12;100.00;100074.52;109444;1251;61819;-72
2023/09/03 00:44:28;;;;;;;3.20;3.00;;;;;;;18.11;100.00;100072.77;109459;1253;58758;-73
2023/09/03 00:46:55;;;;;;;5.10;3.10;;;;;;;18.10;100.00;100066.12;109449;1252;72664;-73
2023/09/03 00:49:23;;;;;;;4.00;3.20;;;;;;;18.08;100.00;100065.83;109195;1253;69984;-73
2023/09/03 00:51:52;;;;;;;3.90;3.50;;;;;;;18.08;100.00;100060.74;109384;1253;71318;-73
2023/09/03 00:54:21;;;;;;;4.00;3.50;;;;;;;18.07;100.00;100064.86;109410;1252;58842;-73
2023/09/03 00:56:58;;;;;;;5.90;3.70;;;;;;;18.06;100.00;100060.64;109378;1252;59658;-73
2023/09/03 00:59:25;;;;;;;5.50;3.80;;;;;;;18.06;100.00;100058.88;109393;1253;74279;-73
2023/09/03 01:01:53;;;;;;;8.40;4.00;;;;;;;18.06;100.00;100056.72;109214;1253;71254;-73
2023/09/03 01:04:21;;;;;;;3.70;3.40;;;;;;;18.06;100.00;100052.31;109361;1253;71437;-73
2023/09/03 01:06:48;;;;;;;6.80;3.70;;;;;;;18.06;100.00;100046.24;109361;1253;60465;-73
2023/09/03 01:09:17;;;;;;;6.10;3.40;;;;;;;18.08;100.00;100046.71;109394;1253;60066;-73
2023/09/03 01:12:12;;;;;;;6.60;4.10;;;;;;;18.07;100.00;100046.92;109414;1253;73823;-73
2023/09/03 01:14:53;;;;;;;5.70;3.20;;;;;;;18.07;100.00;100047.80;109413;1253;71372;-73
2023/09/03 01:17:37;;;;;;;4.90;3.50;;;;;;;18.07;100.00;100047.63;109188;1253;71429;-73
2023/09/03 01:20:11;;;;;;;3.70;3.10;;;;;;;18.08;100.00;100043.86;109210;1253;58842;-73
2023/09/03 01:22:54;;;;;;;7.10;3.70;;;;;;;18.09;100.00;100042.55;109368;1253;60115;-73
2023/09/03 01:25:44;;;;;;;8.00;3.90;;;;;;;18.09;100.00;100039.85;109375;1252;73106;-73
2023/09/03 01:28:25;;;;;;;4.30;3.40;;;;;;;18.10;100.00;100041.93;109230;1253;70656;-73
2023/09/03 01:31:02;;;;;;;6.50;3.30;;;;;;;18.10;100.00;100041.09;109401;1253;72460;-73
2023/09/03 01:33:30;;;;;;;3.50;3.20;;;;;;;18.10;100.00;100041.77;109391;1253;60084;-73
2023/09/03 01:35:59;;;;;;;4.20;3.30;;;;;;;18.10;100.00;100041.20;109186;1253;58724;-73
2023/09/03 01:38:26;;;;;;;5.70;4.20;;;;;;;18.11;100.00;100039.41;109239;1252;73956;-72
2023/09/03 01:40:59;;;;;;;6.40;3.40;;;;;;;18.11;100.00;100043.50;109367;1253;70823;-73
2023/09/03 01:43:26;;;;;;;4.50;3.20;;;;;;;18.12;100.00;100043.08;109375;1253;71407;-73
2023/09/03 01:46:08;;;;;;;3.40;3.10;;;;;;;18.11;100.00;100039.23;109392;1253;58782;-73
2023/09/03 01:48:58;;;;;;;4.40;3.40;;;;;;;18.12;100.00;100038.80;109381;1253;58245;-73
2023/09/03 01:51:28;;;;;;;3.70;3.10;;;;;;;18.14;100.00;100038.67;109365;1253;72566;-72
2023/09/03 01:54:00;;;;;;;8.30;3.40;;;;;;;18.14;100.00;100036.04;109411;1253;70974;-73
2023/09/03 01:56:29;;;;;;;4.00;3.30;;;;;;;18.14;100.00;100033.36;109193;1253;71414;-72
2023/09/03 01:58:59;;;;;;;5.30;3.70;;;;;;;18.15;100.00;100032.44;109327;1253;58296;-73
2023/09/03 02:01:30;;;;;;;6.90;3.20;;;;;;;18.14;100.00;100034.22;109344;1252;58728;-73
2023/09/03 02:03:58;;;;;;;6.60;3.40;;;;;;;18.16;100.00;100033.27;109185;1253;72681;-73
2023/09/03 02:06:25;;;;;;;6.90;2.80;;;;;;;18.16;100.00;100036.61;109413;1252;70974;-73
2023/09/03 02:08:53;;;;;;;4.00;3.30;;;;;;;18.16;100.00;100033.23;109337;1253;72680;-73
2023/09/03 02:11:20;;;;;;;4.50;3.30;;;;;;;18.18;100.00;100035.61;109376;1253;60025;-73
2023/09/03 02:13:49;;;;;;;3.60;3.30;;;;;;;18.19;100.00;100032.73;109368;1253;59220;-73
2023/09/03 02:16:16;;;;;;;3.20;2.90;;;;;;;18.19;100.00;100034.16;109384;1252;72571;-73
2023/09/03 02:18:44;;;;;;;6.00;3.40;;;;;;;18.17;100.00;100030.85;109348;1253;71053;-73
2023/09/03 02:21:11;;;;;;;4.50;3.20;;;;;;;18.17;100.00;100032.27;109394;1253;71782;-73
2023/09/03 02:23:39;;;;;;;4.80;3.30;;;;;;;18.17;100.00;100032.83;109378;1256;58795;-73
2023/09/03 02:26:07;;;;;;;3.40;3.00;;;;;;;18.17;100.00;100032.45;109386;1252;59061;-73
2023/09/03 02:28:36;;;;;;;6.30;3.40;;;;;;;18.18;100.00;100034.58;109407;1253;73847;-73
2023/09/03 02:31:03;;;;;;;4.20;3.10;;;;;;;18.17;100.00;100030.71;109427;1253;70779;-73
2023/09/03 02:33:31;;;;;;;3.10;2.90;;;;;;;18.17;100.00;100030.34;109335;1253;71558;-73
2023/09/03 02:35:59;;;;;;;3.40;3.10;;;;;;;18.17;100.00;100028.06;109371;1253;58759;-73
2023/09/03 02:38:26;;;;;;;3.60;2.80;;;;;;;18.16;100.00;100024.70;109363;1253;58389;-74
2023/09/03 02:40:54;;;;;;;4.10;3.20;;;;;;;18.16;100.00;100020.10;109449;1253;73393;-73
2023/09/03 02:43:21;;;;;;;3.10;2.80;;;;;;;18.16;100.00;100019.20;109416;1256;70872;-73
2023/09/03 02:45:49;;;;;;;6.40;3.20;;;;;;;18.17;100.00;100022.01;109414;1253;72757;-73
2023/09/03 02:48:17;;;;;;;2.80;2.50;;;;;;;18.17;100.00;100019.16;109432;1256;61432;-73
2023/09/03 02:50:47;;;;;;;3.30;3.00;;;;;;;18.17;100.00;100025.52;109387;1252;58792;-73
2023/09/03 02:53:14;;;;;;;4.10;2.70;;;;;;;18.17;100.00;100029.25;109456;1255;72857;-73
2023/09/03 02:55:42;;;;;;;4.10;2.60;;;;;;;18.17;100.00;100025.94;109400;1253;71206;-73
2023/09/03 02:58:09;;;;;;;3.10;2.70;;;;;;;18.16;100.00;100024.35;109338;1253;71502;-73
2023/09/03 03:00:37;;;;;;;4.10;3.00;;;;;;;18.14;100.00;100021.97;109460;1253;60056;-73
2023/09/03 03:03:04;;;;;;;4.30;3.00;;;;;;;18.14;100.00;100024.48;109419;1255;58702;-73
2023/09/03 03:05:32;;;;;;;3.70;3.20;;;;;;;18.13;100.00;100028.60;109496;1253;73280;-73
2023/09/03 03:08:02;;;;;;;3.90;2.80;;;;;;;18.14;100.00;100031.79;109475;1253;68857;-73
2023/09/03 03:10:31;;;;;;;3.20;3.00;;;;;;;18.13;100.00;100033.05;109448;1251;72627;-73
2023/09/03 03:12:58;;;;;;;3.00;2.70;;;;;;;18.12;100.00;100033.30;109470;1252;58814;-73
2023/09/03 03:15:27;;;;;;;3.30;3.00;;;;;;;18.11;100.00;100030.36;109456;1252;58715;-74
2023/09/03 03:17:55;;;;;;;2.80;2.60;;;;;;;18.11;100.00;100030.02;109426;1252;72711;-73
2023/09/03 03:20:23;;;;;;;3.70;2.70;;;;;;;18.10;100.00;100029.15;109470;1253;70914;-74
2023/09/03 03:22:51;;;;;;;3.40;3.10;;;;;;;18.10;100.00;100026.70;109383;1251;72647;-73
2023/09/03 03:25:19;;;;;;;3.70;3.10;;;;;;;18.09;100.00;100024.96;109443;1253;60188;-74
2023/09/03 03:27:46;;;;;;;7.00;3.40;;;;;;;18.10;100.00;100025.45;109448;1254;60021;-73
2023/09/03 03:30:14;;;;;;;5.30;3.30;;;;;;;18.10;100.00;100024.00;109478;1253;73886;-73
2023/09/03 03:32:42;;;;;;;3.50;3.00;;;;;;;18.11;100.00;100023.61;109407;1253;70188;-73
2023/09/03 03:35:10;;;;;;;3.20;2.90;;;;;;;18.11;100.00;100025.55;109486;1251;71340;-73
2023/09/03 03:37:37;;;;;;;3.30;3.00;;;;;;;18.11;100.00;100025.20;109452;1253;58769;-73
2023/09/03 03:40:06;;;;;;;4.70;3.00;;;;;;;18.11;100.00;100028.90;108619;1253;1002490;-73
2023/09/03 03:42:34;;;;;;;4.80;3.10;;;;;;;18.13;100.00;100028.45;109429;1251;73850;-73
2023/09/03 03:45:01;;;;;;;3.60;3.10;;;;;;;18.13;100.00;100026.87;109414;1253;70035;-74
2023/09/03 03:47:29;;;;;;;3.60;3.10;;;;;;;18.11;100.00;100028.38;109447;1255;71419;-73
2023/09/03 03:49:57;;;;;;;3.10;2.70;;;;;;;18.11;100.00;100026.06;108669;1251;1002560;-74
2023/09/03 03:52:25;;;;;;;5.00;3.00;;;;;;;18.11;100.00;100025.17;109450;1256;59162;-74
2023/09/03 03:54:53;;;;;;;3.80;2.90;;;;;;;18.11;100.00;100027.48;109408;1251;72660;-73
2023/09/03 03:57:20;;;;;;;3.50;3.20;;;;;;;18.11;100.00;100026.10;109432;1252;71377;-73
2023/09/03 03:59:49;;;;;;;3.20;2.90;;;;;;;18.09;100.00;100025.64;109418;1251;71879;-73
2023/09/03 04:02:16;;;;;;;4.70;3.20;;;;;;;18.09;100.00;100026.90;109358;1256;58829;-73
2023/09/03 04:04:44;;;;;;;5.20;3.00;;;;;;;18.09;100.00;100023.56;109457;1251;59011;-73
2023/09/03 04:07:12;;;;;;;3.50;2.90;;;;;;;18.09;100.00;100022.81;109470;1251;72544;-74
2023/09/03 04:09:40;;;;;;;4.30;3.00;;;;;;;18.10;100.00;100020.29;109445;1251;69997;-73
2023/09/03 04:12:07;;;;;;;4.90;3.10;;;;;;;18.10;100.00;100022.05;109397;1251;72729;-73
2023/09/03 04:14:36;;;;;;;5.90;3.40;;;;;;;18.11;100.00;100018.97;108676;1251;1002383;-73
2023/09/03 04:17:04;;;;;;;5.90;3.30;;;;;;;18.12;100.00;100021.42;109442;1252;58795;-73
2023/09/03 04:19:32;;;;;;;4.60;2.90;;;;;;;18.13;100.00;100018.13;108704;1251;1002188;-73
2023/09/03 04:21:59;;;;;;;4.50;3.30;;;;;;;18.15;100.00;100017.16;109325;1251;70822;-73
2023/09/03 04:24:27;;;;;;;3.70;3.00;;;;;;;18.17;100.00;100012.06;109448;1251;72717;-73
2023/09/03 04:26:54;;;;;;;4.60;2.90;;;;;;;18.20;100.00;100013.67;109365;1251;59842;-73
2023/09/03 04:29:22;;;;;;;8.00;2.90;;;;;;;18.23;100.00;100014.39;109391;1251;60569;-74
2023/09/03 04:31:50;;;;;;;3.70;3.10;;;;;;;18.25;100.00;100009.84;109431;1251;73919;-74
2023/09/03 04:34:18;;;;;;;6.90;3.40;;;;;;;18.28;100.00;100011.65;109460;1256;69882;-73
2023/09/03 04:36:46;;;;;;;4.80;3.20;;;;;;;18.29;100.00;100012.09;109401;1251;72670;-73
2023/09/03 04:39:13;;;;;;;3.60;3.00;;;;;;;18.31;100.00;100014.81;109442;1251;60053;-73
2023/09/03 04:41:41;;;;;;;4.40;3.20;;;;;;;18.32;100.00;100012.29;109401;1251;58401;-74
2023/09/03 04:44:10;;;;;;;3.10;2.80;;;;;;;18.32;100.00;100014.20;109441;1251;73003;-73
2023/09/03 04:46:44;;;;;;;3.30;3.00;;;;;;;18.33;100.00;100018.23;109228;1251;70920;-73
2023/09/03 04:49:12;;;;;;;3.60;3.30;;;;;;;18.35;100.00;100012.97;109397;1254;72721;-74
2023/09/03 04:51:41;;;;;;;3.70;2.70;;;;;;;18.37;100.00;100015.69;109491;1254;58889;-74
2023/09/03 04:54:09;;;;;;;4.70;2.90;;;;;;;18.39;100.00;100015.22;109494;1251;60081;-74
2023/09/03 04:56:37;;;;;;;3.60;3.30;;;;;;;18.40;100.00;100016.77;109450;1250;73801;-74
2023/09/03 04:59:04;;;;;;;4.10;3.50;;;;;;;18.41;100.00;100018.48;109423;1251;69554;-74
2023/09/03 05:01:33;;;;;;;3.30;3.00;;;;;;;18.42;100.00;100019.16;108682;1251;1002306;-73
2023/09/03 05:04:03;;;;;;;7.30;3.70;;;;;;;18.43;100.00;100018.55;109404;1256;60040;-74
2023/09/03 05:06:31;;;;;;;3.60;3.00;;;;;;;18.45;100.00;100018.63;109460;1251;59955;-74
2023/09/03 05:08:59;;;;;;;3.20;2.90;;;;;;;18.46;100.00;100018.89;109459;1251;73916;-74
2023/09/03 05:11:26;;;;;;;3.50;3.20;;;;;;;18.49;100.00;100020.13;109480;1254;70947;-73
2023/09/03 05:13:54;;;;;;;3.80;3.20;;;;;;;18.52;100.00;100020.66;109407;1251;72860;-73
2023/09/03 05:16:23;;;;;;;4.20;3.80;;;;;;;18.54;100.00;100015.42;109468;1251;58730;-73
2023/09/03 05:18:51;;;;;;;3.50;3.20;;;;;;;18.57;100.00;100021.07;109470;1251;60081;-74
2023/09/03 05:21:19;;;;;;;16.90;3.50;;;;;;;18.59;100.00;100015.46;109425;1250;72409;-74
2023/09/03 05:23:47;;;;;;;3.90;3.60;;;;;;;18.60;100.00;100009.38;109408;1251;69923;-73
2023/09/03 05:26:15;;;;;;;4.00;3.60;;;;;;;18.59;100.00;100006.98;109475;1251;73172;-73
2023/09/03 05:28:42;;;;;;;5.40;3.50;;;;;;;18.57;100.00;100013.98;109455;1251;58830;-74
2023/09/03 05:31:11;;;;;;;4.30;3.90;;;;;;;18.56;100.00;100016.02;109452;1251;58700;-73
2023/09/03 05:33:39;;;;;;;4.30;3.50;;;;;;;18.57;100.00;100018.26;109407;1250;72569;-73
2023/09/03 05:36:07;;;;;;;4.10;3.30;;;;;;;18.57;100.00;100013.61;109379;1251;69379;-74
2023/09/03 05:38:35;;;;;;;6.90;3.50;;;;;;;18.58;100.00;100013.77;109410;1253;72859;-73
2023/09/03 05:41:03;;;;;;;5.30;3.40;;;;;;;18.59;100.00;100013.01;109466;1254;58812;-73
2023/09/03 05:43:30;;;;;;;5.50;3.70;;;;;;;18.60;100.00;100011.55;109453;1251;60050;-73
2023/09/03 05:46:00;;;;;;;3.70;3.40;;;;;;;18.62;100.00;100013.53;109441;1250;72751;-73
2023/09/03 05:48:28;;;;;;;6.20;3.30;;;;;;;18.64;100.00;100016.06;109415;1251;71747;-74
2023/09/03 05:51:04;;;;;;;4.10;3.20;;;;;;;18.66;100.00;100009.92;109416;1251;72002;-73
2023/09/03 05:53:34;;;;;;;4.30;3.00;;;;;;;18.70;100.00;100012.34;109345;1250;60148;-73
2023/09/03 05:56:09;;;;;;;4.30;3.20;;;;;;;18.74;100.00;100014.02;109397;1251;58788;-73
2023/09/03 05:58:37;;;;;;;3.90;3.40;;;;;;;18.80;100.00;100014.76;109414;1251;72584;-72
2023/09/03 06:01:06;;;;;;;3.30;3.00;;;;;;;18.84;100.00;100014.33;109398;1251;71081;-73
2023/09/03 06:03:33;;;;;;;6.50;3.30;;;;;;;18.88;100.00;100013.56;109391;1251;72694;-73
2023/09/03 06:06:05;;;;;;;5.40;3.90;;;;;;;18.94;100.00;100016.02;109401;1251;58785;-72
2023/09/03 06:08:34;;;;;;;4.30;3.30;;;;;;;19.00;100.00;100014.26;109438;1250;58912;-73
2023/09/03 06:11:01;;;;;;;3.80;3.40;;;;;;;19.05;100.00;100013.45;109502;1251;72569;-72
2023/09/03 06:13:30;;;;;;;5.10;2.90;;;;;;;19.09;100.00;100013.36;109491;1251;70027;-73
2023/09/03 06:15:57;;;;;;;3.30;2.90;;;;;;;19.13;100.00;100013.96;109475;1251;71408;-73
2023/09/03 06:18:25;;;;;;;5.80;3.40;;;;;;;19.16;100.00;100010.80;109475;1250;60590;-74
2023/09/03 06:20:54;;;;;;;6.80;3.50;;;;;;;19.19;100.00;100011.52;109452;1251;60510;-73
2023/09/03 06:23:21;;;;;;;3.10;2.80;;;;;;;19.23;100.00;100012.63;109453;1251;73829;-74
2023/09/03 06:25:50;;;;;;;6.10;3.70;;;;;;;19.28;100.00;100013.54;109492;1250;70767;-73
2023/09/03 06:28:17;;;;;;;5.60;3.30;;;;;;;19.36;100.00;100014.91;109437;1252;71460;-73
2023/09/03 06:30:46;;;;;;;3.10;2.80;;;;;;;19.41;100.00;100016.89;109490;1250;58819;-73
2023/09/03 06:33:13;;;;;;;4.20;3.40;;;;;;;19.48;100.00;100016.77;109466;1251;58866;-74
2023/09/03 06:35:41;;;;;;;3.90;2.60;;;;;;;19.53;100.00;100014.00;109439;1251;72466;-73
2023/09/03 06:38:08;;;;;;;3.40;3.10;;;;;;;19.59;100.00;100017.35;109475;1251;71562;-73
2023/09/03 06:40:35;;;;;;;4.40;3.20;;;;;;;19.63;100.00;100017.77;109427;1251;72663;-73
2023/09/03 06:43:03;;;;;;;3.60;3.00;;;;;;;19.69;100.00;100021.87;109462;1251;60080;-73
2023/09/03 06:45:32;;;;;;;5.60;3.30;;;;;;;19.74;100.00;100015.70;109437;1250;60559;-74
2023/09/03 07:00:39;;;;;;;6.80;3.20;;;;;;;19.90;100.00;100000.27;101853;1292;1005153;-74
2023/09/03 07:03:06;;;;;;;6.40;3.10;;;;;;;19.90;100.00;100002.02;105500;1269;59209;-74
2023/09/03 07:05:34;;;;;;;3.50;3.10;;;;;;;19.93;100.00;100002.52;105156;1266;59330;-74
2023/09/03 07:08:01;;;;;;;4.90;3.20;;;;;;;19.95;100.00;99998.83;105643;1261;72660;-74
2023/09/03 07:10:29;;;;;;;4.00;3.60;;;;;;;19.96;100.00;99996.25;106126;1261;72355;-74
2023/09/03 07:12:56;;;;;;;5.10;3.40;;;;;;;19.99;100.00;100004.11;105961;1259;72409;-74
2023/09/03 07:15:23;;;;;;;4.20;3.40;;;;;;;19.99;100.00;100000.70;105839;1256;240118;-75
2023/09/03 07:17:51;;;;;;;3.60;3.30;;;;;;;19.99;100.00;100002.64;106059;1256;59272;-75
2023/09/03 07:20:19;;;;;;;6.40;3.50;;;;;;;19.99;100.00;100001.77;106056;1256;72627;-75
2023/09/03 07:22:46;;;;;;;5.40;3.00;;;;;;;19.99;100.00;100000.72;106835;1256;69454;-74
2023/09/03 07:25:14;;;;;;;6.80;3.90;;;;;;;19.97;100.00;99997.30;105976;1256;72443;-74
2023/09/03 07:27:42;;;;;;;5.00;3.10;;;;;;;19.98;100.00;99998.66;106056;1256;59660;-75
2023/09/03 07:30:11;;;;;;;3.40;3.10;;;;;;;19.98;100.00;100000.61;106080;1256;59908;-74
2023/09/03 07:32:39;;;;;;;4.10;3.20;;;;;;;20.00;100.00;99999.40;105996;1256;72802;-76
2023/09/03 07:35:07;;;;;;;7.50;3.10;;;;;;;19.98;100.00;99997.73;106181;1251;70176;-74
2023/09/03 07:37:35;;;;;;;4.90;3.00;;;;;;;19.97;100.00;100000.48;106186;1257;71131;-74
2023/09/03 07:40:03;;;;;;;5.60;3.10;;;;;;;19.96;100.00;100003.56;106022;1256;59737;-75
2023/09/03 07:42:31;;;;;;;3.50;3.20;;;;;;;19.95;100.00;100004.66;106868;1256;59551;-74
2023/09/03 07:44:58;;;;;;;4.70;3.20;;;;;;;19.95;100.00;100004.14;106624;1256;71840;-75
2023/09/03 07:47:25;;;;;;;11.00;3.80;;;;;;;19.97;100.00;100004.60;106428;1256;69923;-74
2023/09/03 07:49:53;;;;;;;4.40;3.30;;;;;;;19.98;100.00;100010.17;106164;1257;71563;-74
2023/09/03 07:52:21;;;;;;;6.00;3.70;;;;;;;20.01;100.00;100011.59;106045;1257;59684;-75
2023/09/03 08:02:51;;;;;;;3.90;3.30;;;;;;;20.17;100.00;100004.15;102735;1289;616311;-76
2023/09/03 08:05:17;;;;;;;8.50;3.40;;;;;;;20.22;100.00;100000.45;105240;1268;59337;-75
2023/09/03 08:07:45;;;;;;;8.70;3.50;;;;;;;20.26;100.00;100000.14;107058;1253;59153;-73
2023/09/03 08:10:12;;;;;;;6.60;3.30;;;;;;;20.33;100.00;99998.08;106529;1254;72003;-74
2023/09/03 08:12:39;;;;;;;5.90;3.40;;;;;;;20.42;100.00;99995.02;106379;1254;71589;-74
2023/09/03 08:15:07;;;;;;;7.50;3.00;;;;;;;20.51;100.00;100000.26;105961;1256;136713;-74
2023/09/03 08:17:34;;;;;;;6.20;3.50;;;;;;;20.62;100.00;100001.13;106146;1251;60054;-74
2023/09/03 08:20:00;;;;;;;7.40;3.40;;;;;;;20.72;100.00;99998.28;106162;1255;59276;-74
2023/09/03 08:22:30;;;;;;;8.70;3.80;;;;;;;20.85;100.00;99994.98;107657;1251;72106;-75
2023/09/03 08:24:57;;;;;;;5.50;3.60;;;;;;;20.94;100.00;99993.55;106154;1254;70840;-74
2023/09/03 08:27:24;;;;;;;3.70;3.10;;;;;;;21.02;100.00;99983.73;106525;1264;71059;-74
2023/09/03 08:29:51;;;;;;;3.80;3.30;;;;;;;21.10;100.00;99983.21;106106;1251;60553;-75
2023/09/03 08:32:17;;;;;;;5.60;3.50;;;;;;;21.18;100.00;99979.95;106141;1255;59686;-75
2023/09/03 08:34:44;;;;;;;5.20;3.30;;;;;;;21.25;100.00;99980.67;106715;1251;71536;-75
2023/09/03 08:37:11;;;;;;;7.60;3.00;;;;;;;21.31;100.00;99980.77;105788;1255;1002995;-74
2023/09/03 08:39:38;;;;;;;3.30;3.00;;;;;;;21.36;100.00;99980.64;106076;1256;72468;-74
2023/09/03 08:42:05;;;;;;;5.00;3.20;;;;;;;21.38;100.00;99974.92;106109;1255;60425;-74
2023/09/03 08:44:50;;;;;;;3.30;3.00;;;;;;;21.40;100.00;99974.46;106090;1256;60407;-75
2023/09/03 08:47:17;;;;;;;4.80;3.00;;;;;;;21.42;100.00;99974.14;106473;1256;72857;-74
2023/09/03 08:49:45;;;;;;;8.00;2.80;;;;;;;21.41;100.00;99971.71;106186;1251;71126;-74
2023/09/03 08:52:11;;;;;;;8.50;3.00;;;;;;;21.41;100.00;99971.67;106462;1250;71412;-74
2023/09/03 08:54:39;;;;;;;3.70;2.40;;;;;;;21.43;100.00;99972.63;106584;1253;60088;-74
2023/09/03 08:57:05;;;;;;;4.30;3.30;;;;;;;21.45;100.00;99975.65;106874;1251;59650;-75
2023/09/03 08:59:32;;;;;;;5.20;2.90;;;;;;;21.48;100.00;99975.88;106504;1256;73077;-75
2023/09/03 09:01:59;;;;;;;6.00;3.10;;;;;;;21.49;100.00;99972.55;106497;1251;69640;-74
2023/09/03 09:04:28;;;;;;;4.40;2.90;;;;;;;21.50;100.00;99969.42;107181;1257;71130;-74
2023/09/03 09:06:56;;;;;;;5.50;2.50;;;;;;;21.52;100.00;99970.40;105391;1256;1003763;-76
2023/09/03 09:09:23;;;;;;;5.20;2.70;;;;;;;21.55;100.00;99972.50;106723;1256;60133;-74
2023/09/03 09:11:55;;;;;;;3.90;2.50;;;;;;;21.61;100.00;99969.41;106043;1257;72978;-73
